Flight Track Log - Related Links

Times and Time Zones

All times are in EST time to prevent confusion due to time zone crossing. See the EGF3457 flight status page for this flight to view local times or setup timezone preferences in your user account.

Time Position Orientation Groundspeed Altitude Reporting Facility
EST Latitude Longitude Course Direction KTS MPH feet Rate Location/Type
Sat 02:26:14 PM 36.0833 -86.6833 180° South 172 198 2,300  Level Nashville TRACON
Sat 02:27:38 PM 36.0500 -86.6000 116° Southeast 256 295 5,600 2,600 Climbing Nashville TRACON
Sat 02:28:00 PM 36.2729 -86.2317 64° Northeast  Level Estimated
Sat 02:28:14 PM 36.0667 -86.5333 73° East 276 318 7,500  Level Nashville TRACON
Sat 02:29:00 PM 36.3220 -86.0825 68° East  Level Estimated
Sat 02:29:23 PM 36.1017 -86.4431 64° Northeast 265 305 10,100  Level Memphis Center
Sat 02:30:00 PM 36.3709 -85.9331 63° Northeast  Level Estimated
Sat 02:30:25 PM 36.1278 -86.3386 73° East 307 353 11,300  Level Memphis Center
Sat 02:31:00 PM 36.4196 -85.7835 58° Northeast  Level Estimated
Sat 02:31:27 PM 36.1594 -86.2203 72° East 351 404 12,300  Level Memphis Center
Sat 02:32:29 PM 36.1947 -86.0933 71° East 380 437 13,500 1,306 Climbing Memphis Center
Sat 02:33:31 PM 36.2439 -85.9667 64° Northeast 397 457 15,000 1,475 Climbing Memphis Center
Sat 02:34:31 PM 36.3008 -85.8453 60° Northeast 407 468 16,500 1,475 Climbing Indianapolis Center
Sat 02:35:33 PM 36.3672 -85.7025 60° Northeast 410 472 18,000 1,452 Climbing Indianapolis Center
Sat 02:36:35 PM 36.4253 -85.5794 60° Northeast 412 474 19,500 1,512 Climbing Indianapolis Center
Sat 02:37:36 PM 36.4858 -85.4528 59° Northeast 422 486 21,100 1,512 Climbing Indianapolis Center
Sat 02:38:38 PM 36.5472 -85.3219 60° Northeast 434 499 22,600 919 Climbing Indianapolis Center
Sat 02:39:40 PM 36.6111 -85.1864 60° Northeast 453 521 23,000 195 Climbing Indianapolis Center
Sat 02:40:41 PM 36.6614 -85.0311 68° East 481 554 23,000  Level Indianapolis Center
Sat 02:41:43 PM 36.7086 -84.8703 70° East 493 567 23,000  Level Indianapolis Center
Sat 02:42:45 PM 36.7583 -84.7103 69° East 492 566 23,000  Level Indianapolis Center
Sat 02:43:47 PM 36.8172 -84.5164 69° East 495 570 23,000  Level Indianapolis Center
Sat 02:44:48 PM 36.8642 -84.3547 70° East 493 567 23,000  Level Indianapolis Center
Sat 02:45:50 PM 36.9128 -84.1936 69° East 494 568 23,000  Level Indianapolis Center
Sat 02:46:52 PM 36.9614 -84.0336 69° East 491 565 23,000  Level Indianapolis Center
Sat 02:47:54 PM 37.0086 -83.8739 70° East 488 562 23,000  Level Indianapolis Center
Sat 02:48:55 PM 37.0561 -83.7136 70° East 489 563 23,000  Level Indianapolis Center
Sat 02:49:57 PM 37.1033 -83.5511 70° East 493 567 23,000  Level Indianapolis Center
Sat 02:50:59 PM 37.1506 -83.3897 70° East 490 564 23,000  Level Indianapolis Center
Sat 02:52:01 PM 37.2058 -83.1983 70° East 494 568 23,000  Level Indianapolis Center
Sat 02:53:02 PM 37.2531 -83.0358 70° East 490 564 23,000  Level Indianapolis Center
Sat 02:54:04 PM 37.2994 -82.8714 70° East 493 567 23,000  Level Indianapolis Center
Sat 02:55:06 PM 37.3461 -82.7081 70° East 493 567 23,000  Level Indianapolis Center
Sat 02:56:08 PM 37.3925 -82.5450 70° East 492 566 23,000  Level Indianapolis Center
Sat 02:57:09 PM 37.4383 -82.3847 70° East 487 560 23,000  Level Indianapolis Center
Sat 02:58:11 PM 37.4819 -82.2244 71° East 483 556 23,000  Level Indianapolis Center
Sat 02:59:13 PM 37.5258 -82.0647 71° East 482 555 23,000  Level Indianapolis Center
Sat 03:00:15 PM 37.5778 -81.8797 70° East 480 552 23,000  Level Indianapolis Center
Sat 03:01:17 PM 37.6211 -81.7214 71° East 478 550 23,000  Level Indianapolis Center
Sat 03:02:19 PM 37.6631 -81.5639 71° East 474 545 23,000  Level Indianapolis Center
Sat 03:03:20 PM 37.7044 -81.4133 71° East 474 545 23,000  Level Indianapolis Center
Sat 03:04:22 PM 37.7456 -81.2611 71° East 471 542 23,000  Level Indianapolis Center
Sat 03:05:24 PM 37.7942 -81.0789 71° East 470 541 23,000  Level Indianapolis Center
Sat 03:06:26 PM 37.8408 -80.9503 65° Northeast 467 537 23,000  Level Indianapolis Center
Sat 03:07:28 PM 37.9056 -80.7703 65° Northeast 465 535 23,000  Level Indianapolis Center
Sat 03:08:30 PM 37.9561 -80.6231 66° East 464 534 23,000  Level Indianapolis Center
Sat 03:09:17 PM 37.9997 -80.5039 65° Northeast 462 532 23,000  Level Washington Center
Sat 03:10:18 PM 38.0536 -80.3544 65° Northeast 462 532 23,000  Level Washington Center
Sat 03:11:19 PM 38.1053 -80.2072 66° East 462 532 23,000  Level Washington Center
Sat 03:12:17 PM 38.1611 -80.0575 65° Northeast 462 532 23,000  Level Washington Center
Sat 03:13:18 PM 38.2122 -79.9100 66° East 462 532 23,000  Level Washington Center
Sat 03:14:19 PM 38.2608 -79.7753 65° Northeast 457 526 23,000  Level Washington Center
Sat 03:15:17 PM 38.3119 -79.6247 67° East 457 526 23,000  Level Washington Center
Sat 03:16:18 PM 38.3628 -79.4739 67° East 452 520 23,000  Level Washington Center
Sat 03:17:18 PM 38.4156 -79.3256 66° East 452 520 23,000  Level Washington Center
Sat 03:18:18 PM 38.4542 -79.1497 74° East 452 520 23,000  Level Washington Center
Sat 03:19:17 PM 38.4797 -78.9892 78° East 452 520 23,000  Level Washington Center
Sat 03:20:18 PM 38.5025 -78.8444 79° East 457 526 23,000  Level Washington Center
Sat 03:21:19 PM 38.5275 -78.6836 79° East 457 526 23,000 -545 Level Washington Center
Sat 03:22:19 PM 38.5500 -78.5331 79° East 451 519 21,900 -1,412 Descending Washington Center
Sat 03:23:18 PM 38.5725 -78.3853 79° East 431 496 20,200 -1,765 Descending Washington Center
Sat 03:24:18 PM 38.5964 -78.2453 78° East 416 479 18,400 -1,686 Descending Washington Center
Sat 03:25:19 PM 38.6389 -78.1167 67° East 397 457 16,800 -1,765 Descending Washington Center
Sat 03:26:17 PM 38.6789 -77.9956 67° East 380 437 14,900 -1,866 Descending Washington Center
Sat 03:27:18 PM 38.7167 -77.8772 68° East 365 420 13,100 -1,721 Descending Washington Center
Sat 03:28:19 PM 38.7622 -77.7775 60° Northeast 339 390 11,400 -1,091 Descending Washington Center
Sat 03:29:19 PM 38.8178 -77.7019 47° Northeast 313 360 10,900 -1,220 Descending Washington Center
Sat 03:30:17 PM 38.8797 -77.6131 48° Northeast 296 341 9,000 -1,462 Descending Washington Center
Sat 03:31:18 PM 38.9311 -77.5369 49° Northeast 290 334 8,000 -857 Descending Washington Center
Sat 03:32:30 PM 38.9667 -77.4167 69° East 283 326 7,100 -1,173 Descending Potomac TRACON
Sat 03:33:31 PM 38.9833 -77.3167 78° East 283 326 5,400 -1,636 Descending Potomac TRACON
Sat 03:34:31 PM 38.9833 -77.2333 90° East 276 318 3,800 -1,388 Descending Potomac TRACON
Sat 03:35:32 PM 38.9500 -77.1500 117° Southeast 233 268 2,600 -1,091 Descending Potomac TRACON
Sat 03:36:32 PM 38.9167 -77.1000 131° Southeast 145 167 1,600 -900 Descending Potomac TRACON
Sat 03:37:32 PM 38.9000 -77.0667 123° Southeast 139 160 800 -694 Descending Potomac TRACON
Sat 03:38:33 PM 38.8667 -77.0333 142° Southeast 124 143 200 -590 Descending Potomac TRACON

Login

Don't have an account? Register now (free) for customized features, flight alerts, and more!